Time;durP1;ratioP1;P1;durP2;ratioP2;P2;SDS_P1;SDS_P2;PMS_P1;PMS_P2;Temp;Humidity;BMP_temperature;BMP_pressure;BME280_temperature;BME280_humidity;BME280_pressure;Samples;Min_cycle;Max_cycle;Signal;HPM_P1;HPM_P2
2024/04/14 08:45:52;;;;;;;;;;;;;;;20.25;59.29;96687.64;109567;1284;124857;-90
2024/04/14 09:23:39;;;;;;;;;;;;;;;20.55;57.58;96662.10;109154;1253;144856;-90
2024/04/14 09:26:06;;;;;;;;;;;;;;;20.58;58.08;96666.73;108405;1282;24939;-90
2024/04/14 09:28:32;;;;;;;;;;;;;;;20.60;57.74;96658.37;108525;1283;22553;-90
2024/04/14 09:30:59;;;;;;;;;;;;;;;20.66;59.43;96656.10;108449;1277;24262;-90
2024/04/14 09:33:25;;;;;;;;;;;;;;;20.73;58.54;96658.85;108386;1284;124479;-90
2024/04/14 09:35:52;;;;;;;;;;;;;;;20.78;58.28;96648.48;108471;1284;22557;-90
2024/04/14 09:38:18;;;;;;;;;;;;;;;20.87;59.24;96652.05;108356;1284;125252;-89
2024/04/14 09:40:45;;;;;;;;;;;;;;;20.91;57.73;96663.97;108440;1283;22515;-89
2024/04/14 09:43:11;;;;;;;;;;;;;;;20.90;57.76;96664.20;108428;1280;22525;-90
2024/04/14 09:45:37;;;;;;;;;;;;;;;20.91;59.00;96663.21;108306;1284;124257;-90
2024/04/14 09:48:04;;;;;;;;;;;;;;;20.94;57.68;96663.73;108541;1283;24238;-90
2024/04/14 09:50:30;;;;;;;;;;;;;;;20.90;56.85;96661.09;108392;1284;124477;-91
2024/04/14 09:52:57;;;;;;;;;;;;;;;20.86;57.87;96663.51;108290;1284;24184;-90
2024/04/14 09:55:23;;;;;;;;;;;;;;;20.84;56.92;96663.96;108509;1282;22589;-90
2024/04/14 09:57:50;;;;;;;;;;;;;;;20.81;57.77;96662.98;108429;1282;124209;-90
2024/04/14 10:00:16;;;;;;;;;;;;;;;20.85;57.46;96668.31;108439;1284;23095;-91
2024/04/14 10:02:50;;;;;;;;;;;;;;;20.85;57.41;96667.05;108312;1284;124758;-90
2024/04/14 10:05:18;;;;;;;;;;;;;;;20.88;57.86;96670.35;108466;1278;22470;-91
2024/04/14 10:07:44;;;;;;;;;;;;;;;20.91;56.61;96668.97;108401;1284;22534;-90
2024/04/14 10:10:11;;;;;;;;;;;;;;;20.91;57.17;96666.13;108402;1283;124942;-91
2024/04/14 10:12:37;;;;;;;;;;;;;;;20.92;57.73;96663.39;108521;1277;25236;-89
2024/04/14 10:15:04;;;;;;;;;;;;;;;20.95;58.58;96656.19;108433;1280;124226;-90
2024/04/14 10:17:30;;;;;;;;;;;;;;;21.02;57.51;96656.63;108471;1276;24196;-90
2024/04/14 10:19:57;;;;;;;;;;;;;;;21.07;57.31;96652.42;108238;1276;188526;-91
2024/04/14 10:22:31;;;;;;;;;;;;;;;21.11;57.68;96650.10;108688;1281;25397;-91
2024/04/14 10:24:59;;;;;;;;;;;;;;;21.17;56.82;96653.59;108589;1277;22506;-89
2024/04/14 10:27:25;;;;;;;;;;;;;;;21.20;57.69;96660.07;108282;1282;124371;-90
2024/04/14 10:29:58;;;;;;;;;;;;;;;21.23;56.70;96659.42;108572;1278;22535;-90
2024/04/14 10:32:24;;;;;;;;;;;;;;;21.18;56.01;96656.14;108359;1280;124645;-91
2024/04/14 10:34:51;;;;;;;;;;;;;;;21.14;56.76;96648.70;108580;1283;22491;-91
2024/04/14 10:37:27;;;;;;;;;;;;;;;21.12;57.24;96642.98;108573;1281;25436;-91
2024/04/14 10:39:54;;;;;;;;;;;;;;;21.14;57.11;96646.54;108499;1283;124503;-90
2024/04/14 10:42:21;;;;;;;;;;;;;;;21.16;57.79;96637.52;108670;1282;22527;-91
2024/04/14 10:44:48;;;;;;;;;;;;;;;21.18;57.67;96631.88;108474;1277;124464;-92
2024/04/14 10:47:15;;;;;;;;;;;;;;;21.16;57.34;96640.37;108436;1282;24216;-90
2024/04/14 10:49:42;;;;;;;;;;;;;;;21.15;56.74;96647.41;108777;1271;22515;-91
2024/04/14 10:52:10;;;;;;;;;;;;;;;21.08;56.23;96642.44;108484;1276;124292;-91
2024/04/14 10:54:37;;;;;;;;;;;;;;;21.02;57.03;96636.34;108436;1284;22533;-91
2024/04/14 10:57:04;;;;;;;;;;;;;;;21.04;57.93;96635.52;108359;1282;124461;-91
2024/04/14 10:59:30;;;;;;;;;;;;;;;21.07;57.74;96639.41;108521;1284;22503;-91
2024/04/14 11:01:57;;;;;;;;;;;;;;;21.06;57.44;96636.88;108487;1277;125145;-90
2024/04/14 11:04:23;;;;;;;;;;;;;;;21.02;57.22;96634.96;108760;1278;22512;-90
2024/04/14 11:06:50;;;;;;;;;;;;;;;21.00;57.17;96636.27;108621;1282;23309;-91
2024/04/14 11:09:17;;;;;;;;;;;;;;;21.01;57.67;96638.18;108505;1276;124804;-90
2024/04/14 11:11:43;;;;;;;;;;;;;;;21.05;58.56;96635.44;108606;1283;22561;-90
2024/04/14 11:14:10;;;;;;;;;;;;;;;21.11;57.27;96639.52;108520;1276;124672;-90
2024/04/14 11:16:37;;;;;;;;;;;;;;;21.11;57.65;96637.89;108544;1280;22501;-89
2024/04/14 11:19:03;;;;;;;;;;;;;;;21.13;57.42;96628.88;108533;1280;23336;-90
2024/04/14 11:21:30;;;;;;;;;;;;;;;21.18;58.37;96627.44;108532;1281;124224;-90
2024/04/14 11:23:57;;;;;;;;;;;;;;;21.25;59.24;96626.85;108600;1282;22717;-90
2024/04/14 11:26:23;;;;;;;;;;;;;;;21.30;58.87;96624.45;108515;1276;124463;-90
2024/04/14 11:28:50;;;;;;;;;;;;;;;21.31;57.35;96628.86;108500;1280;22558;-91
2024/04/14 11:31:16;;;;;;;;;;;;;;;21.24;56.51;96633.62;108568;1284;22550;-90
2024/04/14 11:33:42;;;;;;;;;;;;;;;21.15;55.91;96627.45;108399;1284;124595;-91
2024/04/14 11:36:09;;;;;;;;;;;;;;;21.11;56.33;96623.88;108490;1284;22538;-91
2024/04/14 11:38:36;;;;;;;;;;;;;;;21.17;57.07;96627.36;108458;1283;124234;-90
2024/04/14 11:41:03;;;;;;;;;;;;;;;21.21;57.02;96628.69;108571;1280;22932;-89
2024/04/14 11:43:30;;;;;;;;;;;;;;;21.17;57.25;96625.10;108566;1283;24201;-90
2024/04/14 11:45:56;;;;;;;;;;;;;;;21.15;56.76;96624.25;108475;1278;125175;-89
2024/04/14 11:48:26;;;;;;;;;;;;;;;21.12;57.70;96624.31;108475;1283;22549;-89
2024/04/14 11:50:52;;;;;;;;;;;;;;;21.11;57.05;96619.02;108463;1279;124330;-89
2024/04/14 11:53:18;;;;;;;;;;;;;;;21.08;57.62;96618.77;108479;1282;22549;-90
2024/04/14 11:55:45;;;;;;;;;;;;;;;21.07;58.02;96620.88;108570;1283;22688;-91
2024/04/14 11:58:13;;;;;;;;;;;;;;;21.05;57.65;96614.83;108394;1277;124281;-90
2024/04/14 12:00:39;;;;;;;;;;;;;;;21.01;58.10;96612.34;108485;1278;22564;-90
2024/04/14 12:03:06;;;;;;;;;;;;;;;21.02;59.29;96619.80;108405;1282;124766;-90
2024/04/14 12:05:32;;;;;;;;;;;;;;;21.06;58.91;96616.64;108505;1284;22551;-90
2024/04/14 12:08:00;;;;;;;;;;;;;;;21.03;58.71;96616.77;108339;1284;124465;-90
2024/04/14 12:10:26;;;;;;;;;;;;;;;20.99;58.33;96618.12;108558;1284;24085;-90
2024/04/14 12:12:53;;;;;;;;;;;;;;;20.93;58.87;96613.37;108559;1284;22505;-90
2024/04/14 12:15:19;;;;;;;;;;;;;;;20.93;58.99;96609.63;108419;1284;124381;-90
2024/04/14 12:17:45;;;;;;;;;;;;;;;20.93;58.92;96610.41;108446;1280;22498;-90
2024/04/14 12:20:12;;;;;;;;;;;;;;;20.97;59.07;96607.62;108502;1283;124411;-90
2024/04/14 12:22:39;;;;;;;;;;;;;;;20.99;59.45;96606.08;108464;1284;23152;-90
2024/04/14 12:25:06;;;;;;;;;;;;;;;20.93;59.17;96602.60;108569;1279;22551;-89
2024/04/14 12:27:32;;;;;;;;;;;;;;;20.83;59.21;96603.35;108521;1276;124269;-90
2024/04/14 12:29:59;;;;;;;;;;;;;;;20.75;59.90;96603.12;108546;1277;22506;-90
2024/04/14 12:32:26;;;;;;;;;;;;;;;20.73;59.17;96601.23;108420;1277;125134;-90
2024/04/14 12:34:52;;;;;;;;;;;;;;;20.70;59.95;96596.92;108579;1283;24177;-90
2024/04/14 12:37:19;;;;;;;;;;;;;;;20.67;59.93;96594.88;108575;1284;22564;-91
2024/04/14 12:39:45;;;;;;;;;;;;;;;20.66;60.26;96595.91;108521;1279;124522;-90
2024/04/14 12:42:12;;;;;;;;;;;;;;;20.69;60.81;96596.23;108489;1283;22552;-90
2024/04/14 12:44:39;;;;;;;;;;;;;;;20.69;60.68;96591.95;108458;1284;124505;-90
2024/04/14 12:47:05;;;;;;;;;;;;;;;20.68;60.62;96593.15;108509;1277;22617;-90
2024/04/14 12:49:31;;;;;;;;;;;;;;;20.68;60.71;96591.13;108549;1282;25332;-90
2024/04/14 12:51:58;;;;;;;;;;;;;;;20.68;60.95;96590.15;108441;1281;124453;-90
2024/04/14 12:54:25;;;;;;;;;;;;;;;20.71;61.31;96588.48;108563;1283;22829;-90
2024/04/14 12:56:51;;;;;;;;;;;;;;;20.72;61.20;96592.04;108530;1280;124341;-90
2024/04/14 12:59:18;;;;;;;;;;;;;;;20.70;60.33;96589.63;108477;1283;24951;-91
2024/04/14 13:01:44;;;;;;;;;;;;;;;20.64;60.81;96587.26;108509;1283;22568;-90
2024/04/14 13:04:11;;;;;;;;;;;;;;;20.62;60.98;96585.54;108546;1283;124913;-90
2024/04/14 13:06:37;;;;;;;;;;;;;;;20.59;60.96;96580.33;108598;1275;22545;-91
2024/04/14 13:09:04;;;;;;;;;;;;;;;20.57;61.03;96584.56;108374;1283;124359;-91
2024/04/14 13:11:30;;;;;;;;;;;;;;;20.54;60.98;96580.46;108488;1280;22567;-90
2024/04/14 13:13:57;;;;;;;;;;;;;;;20.53;61.44;96579.96;108425;1280;124403;-91
2024/04/14 13:16:23;;;;;;;;;;;;;;;20.54;61.59;96571.96;108564;1283;22634;-91
2024/04/14 13:18:49;;;;;;;;;;;;;;;20.57;60.91;96580.17;108613;1276;22508;-91
2024/04/14 13:21:17;;;;;;;;;;;;;;;20.55;60.39;96574.62;108518;1280;124695;-90
2024/04/14 13:23:48;;;;;;;;;;;;;;;20.57;61.20;96572.48;108631;1282;22541;-90
2024/04/14 13:26:14;;;;;;;;;;;;;;;20.59;61.24;96560.95;108539;1283;124708;-90
2024/04/14 13:28:41;;;;;;;;;;;;;;;20.65;61.18;96559.14;108409;1280;22555;-90
2024/04/14 13:31:08;;;;;;;;;;;;;;;20.71;61.44;96557.64;108458;1277;22533;-90
2024/04/14 13:33:35;;;;;;;;;;;;;;;20.76;61.08;96557.18;108506;1284;124211;-91
2024/04/14 13:36:02;;;;;;;;;;;;;;;20.78;60.71;96549.61;108570;1283;23095;-91
2024/04/14 13:38:29;;;;;;;;;;;;;;;20.76;60.58;96544.52;108516;1279;124363;-90
2024/04/14 13:40:55;;;;;;;;;;;;;;;20.79;60.50;96543.76;108584;1284;22474;-91
2024/04/14 13:43:21;;;;;;;;;;;;;;;20.84;60.30;96546.70;108557;1283;22509;-91
2024/04/14 13:45:49;;;;;;;;;;;;;;;20.85;59.63;96539.64;108479;1284;124332;-91
2024/04/14 13:48:15;;;;;;;;;;;;;;;20.85;59.30;96534.45;108493;1283;22607;-91
2024/04/14 13:50:41;;;;;;;;;;;;;;;20.81;59.58;96530.01;108403;1284;124519;-91
2024/04/14 13:53:08;;;;;;;;;;;;;;;20.77;59.34;96523.83;108541;1269;24321;-90
2024/04/14 13:55:34;;;;;;;;;;;;;;;20.74;59.32;96516.33;108489;1282;22547;-91
2024/04/14 13:58:01;;;;;;;;;;;;;;;20.71;58.66;96515.55;108462;1283;124586;-91
2024/04/14 14:00:27;;;;;;;;;;;;;;;20.66;58.84;96505.39;108630;1277;22536;-91
2024/04/14 14:02:54;;;;;;;;;;;;;;;20.64;59.22;96515.60;108464;1280;124619;-90
2024/04/14 14:05:20;;;;;;;;;;;;;;;20.63;59.01;96505.44;108515;1283;22635;-91
2024/04/14 14:07:46;;;;;;;;;;;;;;;20.63;59.51;96503.08;108614;1277;22544;-91
2024/04/14 14:10:13;;;;;;;;;;;;;;;20.65;59.78;96504.34;108524;1282;124202;-91
2024/04/14 14:12:40;;;;;;;;;;;;;;;20.68;58.81;96504.64;108531;1282;22506;-90
2024/04/14 14:15:06;;;;;;;;;;;;;;;20.71;59.36;96499.19;108507;1284;124289;-91
2024/04/14 14:17:33;;;;;;;;;;;;;;;20.69;59.42;96502.07;108458;1283;22618;-91
2024/04/14 14:19:59;;;;;;;;;;;;;;;20.66;59.77;96498.92;108386;1284;124532;-90
2024/04/14 14:22:26;;;;;;;;;;;;;;;20.68;60.13;96497.94;108576;1283;22541;-91
2024/04/14 14:24:52;;;;;;;;;;;;;;;20.71;59.81;96498.98;108590;1283;23968;-90
2024/04/14 14:27:19;;;;;;;;;;;;;;;20.73;59.47;96498.10;108379;1283;124258;-91
2024/04/14 14:29:45;;;;;;;;;;;;;;;20.74;59.22;96495.15;108548;1284;22546;-91
2024/04/14 14:32:12;;;;;;;;;;;;;;;20.76;59.96;96499.31;108488;1277;124473;-91
2024/04/14 14:37:24;;;;;;;;;;;;;;;20.73;59.53;96494.73;108614;1275;24187;-90
2024/04/14 14:39:51;;;;;;;;;;;;;;;20.73;59.70;96494.08;108484;1282;124400;-90
2024/04/14 14:42:19;;;;;;;;;;;;;;;20.74;60.16;96490.88;108491;1284;22514;-90
2024/04/14 14:44:46;;;;;;;;;;;;;;;20.73;60.21;96495.73;108370;1284;124488;-90
2024/04/14 14:47:13;;;;;;;;;;;;;;;20.74;59.31;96489.40;108740;1267;22577;-90
2024/04/14 14:49:39;;;;;;;;;;;;;;;20.71;59.83;96496.44;108572;1283;22549;-90
2024/04/14 14:52:05;;;;;;;;;;;;;;;20.67;59.56;96494.97;108486;1284;23725;-90
2024/04/14 14:54:32;;;;;;;;;;;;;;;20.65;59.09;96496.55;108253;1277;125182;-90
2024/04/14 14:56:58;;;;;;;;;;;;;;;20.64;58.90;96493.80;108556;1280;22590;-91
2024/04/14 14:59:25;;;;;;;;;;;;;;;20.66;58.89;96491.13;108414;1284;124436;-90
2024/04/14 15:01:51;;;;;;;;;;;;;;;20.67;59.27;96490.02;108479;1284;22527;-90
2024/04/14 15:04:18;;;;;;;;;;;;;;;20.68;59.82;96487.22;108533;1283;22536;-90
2024/04/14 15:06:44;;;;;;;;;;;;;;;20.68;59.70;96485.37;108379;1284;124544;-90
2024/04/14 15:09:11;;;;;;;;;;;;;;;20.68;59.56;96484.27;108522;1284;23298;-90
2024/04/14 15:11:37;;;;;;;;;;;;;;;20.69;59.64;96479.73;108435;1284;124486;-91
2024/04/14 15:14:04;;;;;;;;;;;;;;;20.70;58.97;96483.50;108444;1284;22511;-90
2024/04/14 15:16:30;;;;;;;;;;;;;;;20.71;59.29;96480.23;108486;1280;22510;-90
2024/04/14 15:18:57;;;;;;;;;;;;;;;20.73;59.56;96472.55;108451;1284;124754;-90
2024/04/14 15:21:23;;;;;;;;;;;;;;;20.74;59.47;96476.14;108457;1284;22573;-89
2024/04/14 15:23:49;;;;;;;;;;;;;;;20.75;59.19;96478.02;108359;1282;124391;-90
2024/04/14 15:26:17;;;;;;;;;;;;;;;20.75;59.25;96478.86;108530;1284;22551;-90
2024/04/14 15:28:44;;;;;;;;;;;;;;;20.75;60.03;96482.98;108524;1284;22506;-90
2024/04/14 15:31:10;;;;;;;;;;;;;;;20.74;59.94;96480.90;108413;1280;125102;-90
2024/04/14 15:33:38;;;;;;;;;;;;;;;20.73;59.52;96476.13;108556;1283;22546;-89
2024/04/14 15:36:05;;;;;;;;;;;;;;;20.73;59.50;96474.55;108350;1284;124618;-90
2024/04/14 15:38:34;;;;;;;;;;;;;;;20.71;58.58;96465.02;108432;1284;25228;-90
2024/04/14 15:41:00;;;;;;;;;;;;;;;20.69;58.56;96467.38;108482;1284;23240;-90
2024/04/14 15:43:27;;;;;;;;;;;;;;;20.68;59.42;96467.64;108459;1284;124290;-90
2024/04/14 15:45:54;;;;;;;;;;;;;;;20.70;59.54;96470.34;108439;1283;22526;-90
2024/04/14 15:48:20;;;;;;;;;;;;;;;20.71;59.74;96469.77;108376;1284;124496;-89
2024/04/14 15:50:47;;;;;;;;;;;;;;;20.70;59.99;96473.25;108489;1279;22523;-89
2024/04/14 15:53:13;;;;;;;;;;;;;;;20.69;60.34;96471.98;108586;1284;22520;-90
2024/04/14 15:55:40;;;;;;;;;;;;;;;20.68;60.81;96469.32;108402;1284;124231;-91
2024/04/14 15:58:06;;;;;;;;;;;;;;;20.65;60.47;96470.26;108539;1284;22501;-91
2024/04/14 16:00:32;;;;;;;;;;;;;;;20.63;59.99;96461.36;108414;1284;124564;-91
2024/04/14 16:02:59;;;;;;;;;;;;;;;20.60;60.03;96458.10;108543;1273;22563;-90
2024/04/14 16:05:27;;;;;;;;;;;;;;;20.57;60.27;96459.77;108377;1284;124247;-91
2024/04/14 16:07:55;;;;;;;;;;;;;;;20.56;60.06;96460.60;108517;1284;23127;-91
2024/04/14 16:10:22;;;;;;;;;;;;;;;20.55;59.58;96456.94;108450;1284;25187;-90
2024/04/14 16:12:48;;;;;;;;;;;;;;;20.55;59.69;96454.25;108354;1284;124472;-91
2024/04/14 16:15:15;;;;;;;;;;;;;;;20.55;60.31;96453.41;108516;1270;22515;-91
2024/04/14 16:17:41;;;;;;;;;;;;;;;20.54;59.77;96453.23;108499;1281;124501;-91
2024/04/14 16:20:08;;;;;;;;;;;;;;;20.52;60.03;96456.63;108502;1278;22564;-91
2024/04/14 16:22:34;;;;;;;;;;;;;;;20.50;60.15;96455.00;108572;1284;22512;-91
2024/04/14 16:25:01;;;;;;;;;;;;;;;20.46;60.00;96454.09;108396;1283;124251;-91
2024/04/14 16:27:28;;;;;;;;;;;;;;;20.43;59.93;96449.84;108583;1284;23771;-91
2024/04/14 16:29:54;;;;;;;;;;;;;;;20.43;60.31;96442.83;108504;1284;124415;-90
2024/04/14 16:32:21;;;;;;;;;;;;;;;20.42;60.10;96442.90;108596;1277;22550;-91
2024/04/14 16:34:47;;;;;;;;;;;;;;;20.41;60.42;96440.84;108584;1277;22502;-90
2024/04/14 16:37:14;;;;;;;;;;;;;;;20.39;60.43;96443.59;108374;1284;124265;-91
2024/04/14 16:39:40;;;;;;;;;;;;;;;20.36;60.21;96438.69;108556;1281;22543;-90
2024/04/14 16:42:07;;;;;;;;;;;;;;;20.33;60.40;96437.43;108329;1285;124354;-91
2024/04/14 16:44:33;;;;;;;;;;;;;;;20.32;60.29;96436.39;108571;1284;22550;-92
2024/04/14 16:47:00;;;;;;;;;;;;;;;20.28;60.50;96434.92;108473;1283;22534;-91
2024/04/14 16:49:27;;;;;;;;;;;;;;;20.23;60.43;96434.48;108335;1284;124481;-91
2024/04/14 16:51:53;;;;;;;;;;;;;;;20.19;60.56;96433.54;108505;1284;22528;-90
2024/04/14 16:54:20;;;;;;;;;;;;;;;20.17;60.33;96433.53;108353;1284;124461;-90
2024/04/14 16:56:46;;;;;;;;;;;;;;;20.16;60.58;96434.62;108503;1277;22771;-90
2024/04/14 16:59:12;;;;;;;;;;;;;;;20.14;60.68;96437.55;108533;1284;23140;-91
2024/04/14 17:01:39;;;;;;;;;;;;;;;20.11;60.96;96438.30;108353;1280;124181;-91
2024/04/14 17:04:05;;;;;;;;;;;;;;;20.08;61.26;96442.01;108482;1284;22537;-91
2024/04/14 17:06:32;;;;;;;;;;;;;;;20.04;61.16;96442.22;108332;1280;124214;-91
2024/04/14 17:08:58;;;;;;;;;;;;;;;20.01;61.37;96438.20;108574;1283;22517;-90
2024/04/14 17:11:24;;;;;;;;;;;;;;;19.98;61.64;96431.76;108416;1283;124399;-91
2024/04/14 17:13:51;;;;;;;;;;;;;;;19.96;61.53;96433.84;108544;1283;25392;-91
2024/04/14 17:16:17;;;;;;;;;;;;;;;19.94;62.02;96445.41;108578;1277;22452;-91
2024/04/14 17:18:44;;;;;;;;;;;;;;;19.92;62.08;96471.65;108384;1284;124300;-91
2024/04/14 17:21:10;;;;;;;;;;;;;;;19.87;63.18;96474.84;108555;1284;22551;-90
2024/04/14 17:23:37;;;;;;;;;;;;;;;19.78;64.22;96470.88;108346;1276;124360;-91
2024/04/14 17:26:03;;;;;;;;;;;;;;;19.69;65.01;96480.43;108545;1284;22517;-91
2024/04/14 17:28:30;;;;;;;;;;;;;;;19.61;65.35;96481.34;108456;1285;22550;-90
2024/04/14 17:30:56;;;;;;;;;;;;;;;19.54;66.01;96492.59;108451;1284;124380;-88
2024/04/14 17:33:23;;;;;;;;;;;;;;;19.42;66.56;96493.02;108468;1280;22517;-91
2024/04/14 17:35:49;;;;;;;;;;;;;;;19.25;67.78;96491.17;108459;1284;124515;-91
2024/04/14 17:38:15;;;;;;;;;;;;;;;19.09;68.09;96495.83;108477;1279;22900;-91
2024/04/14 17:40:42;;;;;;;;;;;;;;;18.98;68.38;96504.05;108537;1284;22567;-91
2024/04/14 17:43:08;;;;;;;;;;;;;;;18.89;68.58;96504.77;108466;1280;124298;-91
2024/04/14 17:45:37;;;;;;;;;;;;;;;18.80;68.97;96510.39;108488;1283;22709;-90
2024/04/14 17:48:03;;;;;;;;;;;;;;;18.71;69.31;96515.05;108304;1279;124399;-91
2024/04/14 17:50:31;;;;;;;;;;;;;;;18.62;69.63;96514.13;108453;1283;22573;-91
2024/04/14 17:52:57;;;;;;;;;;;;;;;18.53;70.14;96511.23;108563;1280;22544;-91
2024/04/14 17:55:24;;;;;;;;;;;;;;;18.44;70.76;96513.83;108413;1284;124321;-91
2024/04/14 17:57:50;;;;;;;;;;;;;;;18.39;71.00;96510.91;108469;1284;22550;-90
2024/04/14 18:00:16;;;;;;;;;;;;;;;18.35;71.30;96506.23;108351;1283;124732;-90
2024/04/14 18:02:43;;;;;;;;;;;;;;;18.30;71.86;96505.49;108479;1284;23855;-90
2024/04/14 18:05:09;;;;;;;;;;;;;;;18.26;72.20;96510.83;108527;1284;22546;-90
2024/04/14 18:07:36;;;;;;;;;;;;;;;18.18;72.86;96511.42;108379;1282;124440;-91
2024/04/14 18:10:02;;;;;;;;;;;;;;;18.12;73.33;96513.31;108466;1282;22525;-90
2024/04/14 18:12:29;;;;;;;;;;;;;;;18.08;73.40;96524.17;108360;1276;124647;-91
2024/04/14 18:14:55;;;;;;;;;;;;;;;18.02;73.45;96524.41;108494;1284;23085;-91
2024/04/14 18:17:21;;;;;;;;;;;;;;;17.92;73.84;96518.82;108491;1280;124560;-91
2024/04/14 18:19:48;;;;;;;;;;;;;;;17.84;74.06;96528.44;108584;1283;23638;-91
2024/04/14 18:22:14;;;;;;;;;;;;;;;17.75;74.52;96537.35;108478;1284;25385;-90
2024/04/14 18:24:42;;;;;;;;;;;;;;;17.66;74.70;96551.45;108476;1276;124597;-90
2024/04/14 18:27:09;;;;;;;;;;;;;;;17.57;75.14;96563.16;108565;1284;22531;-91
2024/04/14 18:29:36;;;;;;;;;;;;;;;17.46;75.53;96560.52;108394;1283;124386;-90
2024/04/14 18:32:03;;;;;;;;;;;;;;;17.34;74.86;96555.75;108529;1284;22514;-91
2024/04/14 18:34:29;;;;;;;;;;;;;;;17.27;73.55;96565.90;108465;1284;25404;-91
2024/04/14 18:36:55;;;;;;;;;;;;;;;17.25;73.44;96571.14;108388;1279;124978;-91
2024/04/14 18:39:22;;;;;;;;;;;;;;;17.24;73.48;96577.89;108428;1284;22551;-91
2024/04/14 18:41:48;;;;;;;;;;;;;;;17.21;73.25;96572.49;108452;1284;125730;-91
2024/04/14 18:44:15;;;;;;;;;;;;;;;17.19;73.05;96579.84;108473;1284;24192;-91
2024/04/14 18:46:42;;;;;;;;;;;;;;;17.18;72.41;96585.59;108482;1273;22551;-91
2024/04/14 18:49:08;;;;;;;;;;;;;;;17.18;72.16;96585.27;108440;1284;125139;-91
2024/04/14 18:51:34;;;;;;;;;;;;;;;17.18;72.39;96581.75;108502;1284;23169;-90
2024/04/14 18:54:01;;;;;;;;;;;;;;;17.19;72.35;96586.02;108396;1276;125338;-90
2024/04/14 18:56:27;;;;;;;;;;;;;;;17.17;72.53;96580.67;108525;1280;22893;-91
2024/04/14 18:58:55;;;;;;;;;;;;;;;17.14;72.84;96575.86;108741;1266;22536;-91
2024/04/14 19:01:21;;;;;;;;;;;;;;;17.08;72.51;96575.48;108465;1284;124999;-91
2024/04/14 19:03:48;;;;;;;;;;;;;;;17.00;72.42;96571.67;108457;1283;22552;-91
2024/04/14 19:06:14;;;;;;;;;;;;;;;16.96;73.74;96570.71;108422;1284;124936;-91
2024/04/14 19:08:41;;;;;;;;;;;;;;;16.93;73.92;96568.20;108448;1284;25387;-91
2024/04/14 19:11:07;;;;;;;;;;;;;;;16.85;74.45;96561.61;108552;1282;24850;-92
2024/04/14 19:13:34;;;;;;;;;;;;;;;16.80;75.13;96554.76;108414;1284;124982;-91
2024/04/14 19:16:00;;;;;;;;;;;;;;;16.73;75.17;96548.51;108540;1283;23724;-91
2024/04/14 19:18:27;;;;;;;;;;;;;;;16.69;76.49;96541.04;108428;1282;125133;-90
2024/04/14 19:20:53;;;;;;;;;;;;;;;16.66;76.35;96533.67;108523;1282;24196;-91
2024/04/14 19:23:20;;;;;;;;;;;;;;;16.63;76.69;96538.86;108446;1284;22516;-91
2024/04/14 19:25:47;;;;;;;;;;;;;;;16.54;76.95;96538.68;108456;1283;124760;-91
2024/04/14 19:28:13;;;;;;;;;;;;;;;16.43;77.03;96549.42;108426;1279;23843;-91
2024/04/14 19:30:39;;;;;;;;;;;;;;;16.37;78.57;96557.61;108436;1284;125137;-91
2024/04/14 19:33:06;;;;;;;;;;;;;;;16.33;78.48;96551.29;108555;1277;22684;-91
2024/04/14 19:35:32;;;;;;;;;;;;;;;16.24;78.58;96554.41;108457;1277;125370;-89
2024/04/14 19:37:59;;;;;;;;;;;;;;;16.15;77.90;96559.40;108545;1276;22498;-91
2024/04/14 19:40:25;;;;;;;;;;;;;;;16.14;79.39;96562.76;108521;1277;22900;-91
2024/04/14 19:42:52;;;;;;;;;;;;;;;16.11;79.32;96571.73;108466;1284;124937;-90
2024/04/14 19:45:18;;;;;;;;;;;;;;;16.04;79.53;96568.54;108530;1280;22545;-92
2024/04/14 19:47:45;;;;;;;;;;;;;;;15.98;80.26;96565.73;108440;1278;125056;-91
2024/04/14 19:50:11;;;;;;;;;;;;;;;15.93;80.62;96567.27;108501;1283;23264;-91
2024/04/14 19:52:38;;;;;;;;;;;;;;;15.91;77.43;96573.81;108483;1284;22548;-91
2024/04/14 19:55:05;;;;;;;;;;;;;;;15.96;78.74;96579.48;108462;1283;125138;-92
2024/04/14 19:57:31;;;;;;;;;;;;;;;15.96;79.10;96577.20;108505;1284;22509;-90
2024/04/14 19:59:58;;;;;;;;;;;;;;;15.93;79.31;96574.58;108417;1283;125286;-91
2024/04/14 20:02:25;;;;;;;;;;;;;;;15.86;79.06;96576.75;108574;1280;25002;-91
2024/04/14 20:04:51;;;;;;;;;;;;;;;15.81;79.20;96578.20;108545;1283;22507;-91
2024/04/14 20:07:19;;;;;;;;;;;;;;;15.76;79.00;96574.83;108468;1283;124958;-92
2024/04/14 20:09:45;;;;;;;;;;;;;;;15.70;78.86;96566.64;108568;1283;22827;-91
2024/04/14 20:12:12;;;;;;;;;;;;;;;15.66;78.75;96568.23;108422;1280;126398;-91
2024/04/14 20:14:38;;;;;;;;;;;;;;;15.59;78.07;96562.02;108580;1283;24180;-91
2024/04/14 20:17:04;;;;;;;;;;;;;;;15.53;77.69;96558.30;108495;1282;24212;-91
2024/04/14 20:19:31;;;;;;;;;;;;;;;15.48;77.97;96554.23;108482;1282;125212;-91
2024/04/14 20:21:58;;;;;;;;;;;;;;;15.43;78.13;96551.48;108449;1283;22535;-90
2024/04/14 20:24:24;;;;;;;;;;;;;;;15.39;78.09;96552.15;108420;1283;127852;-91
2024/04/14 20:26:51;;;;;;;;;;;;;;;15.31;78.18;96551.02;108544;1276;22522;-91
2024/04/14 20:29:17;;;;;;;;;;;;;;;15.25;78.70;96550.61;108481;1274;23848;-91
2024/04/14 20:31:43;;;;;;;;;;;;;;;15.22;79.09;96541.50;108417;1276;125095;-91
2024/04/14 20:34:11;;;;;;;;;;;;;;;15.15;79.19;96538.11;108475;1279;22536;-90
2024/04/14 20:36:38;;;;;;;;;;;;;;;15.09;79.61;96539.88;108474;1282;125100;-90
2024/04/14 20:39:05;;;;;;;;;;;;;;;15.06;79.58;96540.38;108437;1282;22503;-91
2024/04/14 20:41:32;;;;;;;;;;;;;;;15.00;79.61;96538.15;108345;1282;125927;-90
2024/04/14 20:43:58;;;;;;;;;;;;;;;14.96;79.61;96540.80;108503;1280;22501;-91
2024/04/14 20:46:25;;;;;;;;;;;;;;;14.90;79.64;96545.09;108532;1282;23649;-91
2024/04/14 20:48:52;;;;;;;;;;;;;;;14.87;79.27;96545.38;108416;1283;125093;-90
2024/04/14 20:51:19;;;;;;;;;;;;;;;14.80;79.00;96541.24;108519;1267;22596;-91
2024/04/14 20:53:46;;;;;;;;;;;;;;;14.76;79.20;96548.45;108468;1281;125062;-91
2024/04/14 20:56:12;;;;;;;;;;;;;;;14.70;79.42;96550.27;108612;1283;22668;-90
2024/04/14 20:58:41;;;;;;;;;;;;;;;14.66;79.33;96556.24;108496;1282;22514;-88
2024/04/14 21:01:08;;;;;;;;;;;;;;;14.62;79.23;96555.77;108388;1276;125086;-88
2024/04/14 21:03:34;;;;;;;;;;;;;;;14.57;79.16;96558.58;108418;1283;22473;-88
2024/04/14 21:06:01;;;;;;;;;;;;;;;14.52;79.29;96558.34;108333;1283;125283;-88
2024/04/14 21:08:27;;;;;;;;;;;;;;;14.48;79.05;96557.29;108481;1282;25280;-88
2024/04/14 21:11:00;;;;;;;;;;;;;;;14.43;78.83;96559.27;108516;1280;22556;-88
2024/04/14 21:13:26;;;;;;;;;;;;;;;14.38;78.74;96551.23;108436;1283;125022;-88
2024/04/14 21:15:53;;;;;;;;;;;;;;;14.32;78.79;96552.20;108488;1283;24278;-88
2024/04/14 21:18:19;;;;;;;;;;;;;;;14.26;79.22;96551.98;108329;1283;125215;-88
2024/04/14 21:20:52;;;;;;;;;;;;;;;14.21;78.87;96551.46;108552;1277;24176;-88
2024/04/14 21:23:19;;;;;;;;;;;;;;;14.18;78.90;96556.77;108445;1276;22503;-88
2024/04/14 21:25:45;;;;;;;;;;;;;;;14.16;79.53;96558.51;108423;1283;124888;-88
2024/04/14 21:28:11;;;;;;;;;;;;;;;14.15;79.23;96549.39;108537;1283;22542;-87
2024/04/14 21:30:38;;;;;;;;;;;;;;;14.11;79.33;96541.46;108374;1283;125235;-88
2024/04/14 21:33:04;;;;;;;;;;;;;;;14.10;79.83;96541.47;108421;1275;22505;-88
2024/04/14 21:35:34;;;;;;;;;;;;;;;14.09;79.61;96545.81;108463;1283;125233;-88
2024/04/14 21:38:00;;;;;;;;;;;;;;;14.06;79.29;96542.03;108481;1280;22551;-88
2024/04/14 21:40:27;;;;;;;;;;;;;;;14.04;79.26;96544.38;108473;1277;22499;-88
2024/04/14 21:42:53;;;;;;;;;;;;;;;14.03;79.50;96540.55;108415;1283;125071;-88
2024/04/14 21:45:19;;;;;;;;;;;;;;;13.99;80.01;96542.38;108540;1283;22524;-89
2024/04/14 21:47:47;;;;;;;;;;;;;;;13.95;79.82;96542.25;108414;1270;125465;-88
2024/04/14 21:50:14;;;;;;;;;;;;;;;13.92;80.09;96542.65;108433;1283;23988;-88
2024/04/14 21:52:40;;;;;;;;;;;;;;;13.90;80.33;96540.61;108487;1283;24820;-88